Time;durP1;ratioP1;P1;durP2;ratioP2;P2;SDS_P1;SDS_P2;PMS_P1;PMS_P2;Temp;Humidity;BMP_temperature;BMP_pressure;BME280_temperature;BME280_humidity;BME280_pressure;Samples;Min_cycle;Max_cycle;Signal;HPM_P1;HPM_P2
2022/11/25 00:01:11;;;;;;;16.88;3.63;;;;;;;7.11;100.00;100907.66;4893850;29;20131;-76
2022/11/25 00:03:37;;;;;;;19.17;3.78;;;;;;;7.21;100.00;100911.56;4895798;29;20044;-75
2022/11/25 00:06:30;;;;;;;17.30;4.97;;;;;;;7.19;100.00;100916.97;4895570;29;20131;-76
2022/11/25 00:09:02;;;;;;;12.77;3.58;;;;;;;7.25;100.00;100918.44;4885532;29;20049;-76
2022/11/25 00:11:28;;;;;;;24.80;4.82;;;;;;;7.27;100.00;100908.63;4893041;29;20055;-75
2022/11/25 00:13:54;;;;;;;29.27;5.53;;;;;;;7.33;100.00;100918.94;4893538;29;20041;-76
2022/11/25 00:16:22;;;;;;;20.08;6.10;;;;;;;7.37;100.00;100915.19;4893588;29;20104;-75
2022/11/25 00:18:51;;;;;;;16.50;3.00;;;;;;;7.33;100.00;100904.78;4885009;29;20123;-75
2022/11/25 00:21:19;;;;;;;19.33;3.78;;;;;;;7.35;100.00;100909.13;4889546;29;20075;-76
2022/11/25 00:23:53;;;;;;;16.67;3.58;;;;;;;7.33;100.00;100900.38;4893748;29;20446;-74
2022/11/25 00:26:19;;;;;;;18.00;3.67;;;;;;;7.36;100.00;100900.22;4893492;29;20456;-75
2022/11/25 00:28:46;;;;;;;21.58;4.13;;;;;;;7.36;100.00;100896.69;4896158;29;20044;-75
2022/11/25 00:31:15;;;;;;;16.38;3.92;;;;;;;7.42;100.00;100901.69;4889467;29;20053;-76
2022/11/25 00:33:41;;;;;;;15.00;3.95;;;;;;;7.36;100.00;100899.34;4889142;29;20033;-76
2022/11/25 00:36:20;;;;;;;17.95;4.05;;;;;;;7.32;100.00;100889.81;4880602;29;20056;-75
2022/11/25 00:38:51;;;;;;;15.15;3.92;;;;;;;7.28;100.00;100897.09;4890898;29;20056;-76
2022/11/25 00:46:45;;;;;;;23.38;4.65;;;;;;;7.38;100.00;100885.09;4901133;29;20500;-75
2022/11/25 00:49:10;;;;;;;19.90;4.20;;;;;;;7.37;100.00;100893.09;4891495;29;20048;-75
2022/11/25 00:51:36;;;;;;;16.05;3.90;;;;;;;7.38;100.00;100886.88;4892030;29;20076;-76
2022/11/25 00:54:01;;;;;;;19.10;4.72;;;;;;;7.39;100.00;100878.84;4887271;29;20041;-76
2022/11/25 00:56:29;;;;;;;18.73;5.07;;;;;;;7.33;100.00;100883.56;4878446;29;20037;-75
2022/11/25 00:58:54;;;;;;;17.88;3.05;;;;;;;7.32;100.00;100887.16;4891920;29;20056;-76
2022/11/25 01:01:21;;;;;;;17.25;3.22;;;;;;;7.39;100.00;100894.75;4890498;29;20044;-76
2022/11/25 01:03:50;;;;;;;20.15;4.60;;;;;;;7.31;100.00;100894.28;4891616;29;20608;-76
2022/11/25 01:06:16;;;;;;;16.77;4.63;;;;;;;7.34;100.00;100885.31;4891038;29;20434;-76
2022/11/25 01:08:41;;;;;;;13.60;2.95;;;;;;;7.35;100.00;100889.69;4891858;29;20112;-75
2022/11/25 01:11:10;;;;;;;19.05;4.10;;;;;;;7.38;100.00;100890.41;4890682;29;20056;-75
2022/11/25 01:13:38;;;;;;;14.70;4.20;;;;;;;7.41;100.00;100881.41;4890129;29;20169;-76
2022/11/25 01:16:04;;;;;;;24.65;4.15;;;;;;;7.43;100.00;100884.84;4890446;29;20040;-77
2022/11/25 01:18:30;;;;;;;24.13;4.20;;;;;;;7.43;100.00;100884.84;4890838;29;20155;-75
2022/11/25 01:21:13;;;;;;;13.27;3.47;;;;;;;7.38;100.00;100878.91;4892354;29;20156;-77
2022/11/25 01:23:40;;;;;;;28.00;4.72;;;;;;;7.39;100.00;100876.19;4890773;29;20486;-77
2022/11/25 01:26:09;;;;;;;20.48;3.92;;;;;;;7.40;100.00;100885.00;4890698;29;20486;-76
2022/11/25 01:28:35;;;;;;;21.42;4.28;;;;;;;7.39;100.00;100878.84;4873564;29;20838;-76
2022/11/25 01:31:14;;;;;;;23.45;4.00;;;;;;;7.36;100.00;100884.28;4873419;29;20045;-77
2022/11/25 01:33:40;;;;;;;16.92;4.20;;;;;;;7.35;100.00;100882.59;4890001;29;20072;-76
2022/11/25 01:36:08;;;;;;;18.73;3.53;;;;;;;7.38;100.00;100884.22;4887027;29;20810;-76
2022/11/25 01:38:34;;;;;;;23.05;3.88;;;;;;;7.39;100.00;100889.47;4884212;29;20140;-76
2022/11/25 01:41:01;;;;;;;20.60;3.72;;;;;;;7.41;100.00;100889.38;4881168;29;20045;-76
2022/11/25 01:43:27;;;;;;;14.63;4.50;;;;;;;7.44;100.00;100882.13;4891095;29;20084;-76
2022/11/25 01:46:02;;;;;;;23.15;3.85;;;;;;;7.41;100.00;100884.06;4885693;29;20073;-76
2022/11/25 01:48:44;;;;;;;13.32;3.83;;;;;;;7.42;100.00;100884.00;4893668;29;20043;-76
2022/11/25 01:51:22;;;;;;;16.17;4.17;;;;;;;7.43;100.00;100867.16;4894443;29;20525;-77
2022/11/25 01:53:49;;;;;;;26.20;4.15;;;;;;;7.46;100.00;100882.03;4893946;29;20360;-76
2022/11/25 01:56:16;;;;;;;25.02;4.18;;;;;;;7.46;100.00;100887.34;4891473;29;20083;-76
2022/11/25 01:58:44;;;;;;;18.95;4.95;;;;;;;7.47;100.00;100887.28;4893578;29;20060;-76
2022/11/25 02:01:10;;;;;;;25.92;5.38;;;;;;;7.49;100.00;100881.91;4892844;29;20059;-77
2022/11/25 02:03:41;;;;;;;16.60;3.72;;;;;;;7.48;100.00;100888.13;4892282;29;20041;-76
2022/11/25 02:06:20;;;;;;;20.38;4.47;;;;;;;7.47;100.00;100881.97;4906427;29;20800;-77
2022/11/25 02:08:49;;;;;;;15.88;3.60;;;;;;;7.45;100.00;100883.84;4881657;29;20281;-76
2022/11/25 02:11:18;;;;;;;20.88;4.30;;;;;;;7.43;100.00;100887.50;4894438;29;20052;-75
2022/11/25 02:13:46;;;;;;;22.15;5.13;;;;;;;7.45;100.00;100888.28;4888212;29;20041;-75
2022/11/25 02:16:11;;;;;;;16.73;4.30;;;;;;;7.47;100.00;100883.75;4904129;29;20498;-76
2022/11/25 02:18:37;;;;;;;19.50;3.90;;;;;;;7.48;100.00;100886.34;4890240;29;20085;-76
2022/11/25 02:21:03;;;;;;;19.02;4.05;;;;;;;7.46;100.00;100882.03;4894039;29;20084;-75
2022/11/25 02:23:49;;;;;;;19.75;4.28;;;;;;;7.49;100.00;100896.03;4891232;29;20056;-76
2022/11/25 02:26:16;;;;;;;15.43;4.55;;;;;;;7.49;100.00;100898.69;4892811;29;20036;-76
2022/11/25 02:28:41;;;;;;;16.27;4.60;;;;;;;7.52;100.00;100882.59;4890320;29;20040;-76
2022/11/25 02:31:07;;;;;;;30.20;4.93;;;;;;;7.52;100.00;100884.38;4881718;29;20051;-75
2022/11/25 02:33:34;;;;;;;19.67;3.50;;;;;;;7.56;100.00;100877.13;4885992;29;20843;-76
2022/11/25 02:36:13;;;;;;;18.02;4.50;;;;;;;7.53;100.00;100883.47;4890192;29;20044;-76
2022/11/25 02:38:49;;;;;;;36.78;6.38;;;;;;;7.51;100.00;100880.03;4891548;29;20043;-76
2022/11/25 02:41:16;;;;;;;16.60;3.60;;;;;;;7.53;100.00;100887.00;4889859;29;20040;-76
2022/11/25 02:43:44;;;;;;;16.73;3.75;;;;;;;7.55;100.00;100880.75;4889597;29;20040;-75
2022/11/25 02:46:12;;;;;;;17.73;3.65;;;;;;;7.59;100.00;100882.31;4879900;29;20623;-76
2022/11/25 02:48:40;;;;;;;15.65;5.22;;;;;;;7.58;100.00;100884.09;4885021;29;20402;-76
2022/11/25 02:51:08;;;;;;;15.85;3.70;;;;;;;7.63;100.00;100884.72;4885653;29;20047;-75
2022/11/25 02:53:34;;;;;;;29.63;4.30;;;;;;;7.69;100.00;100886.22;4883068;29;20140;-76
2022/11/25 02:56:00;;;;;;;14.05;3.85;;;;;;;7.70;100.00;100895.88;4889448;29;20063;-77
2022/11/25 02:58:26;;;;;;;16.45;3.53;;;;;;;7.74;100.00;100895.66;4889749;29;20044;-76
2022/11/25 03:00:52;;;;;;;21.35;3.75;;;;;;;7.75;100.00;100891.19;4889177;29;20040;-75
2022/11/25 03:03:18;;;;;;;19.63;3.75;;;;;;;7.86;100.00;100898.63;4890782;29;20104;-76
2022/11/25 03:05:46;;;;;;;19.90;4.03;;;;;;;7.83;100.00;100890.78;4888982;29;20410;-76
2022/11/25 03:08:11;;;;;;;13.13;3.38;;;;;;;7.81;100.00;100909.47;4890567;29;20059;-76
2022/11/25 03:10:38;;;;;;;16.50;3.50;;;;;;;7.79;100.00;100917.50;4889676;29;20666;-75
2022/11/25 03:13:05;;;;;;;18.23;3.80;;;;;;;7.80;100.00;100910.41;4889156;29;20130;-76
2022/11/25 03:15:31;;;;;;;22.23;4.15;;;;;;;7.83;100.00;100912.91;4880097;29;20032;-76
2022/11/25 03:17:59;;;;;;;16.10;4.57;;;;;;;7.81;100.00;100912.13;4886144;29;20135;-75
2022/11/25 03:20:25;;;;;;;23.38;4.32;;;;;;;7.86;100.00;100919.84;4889057;29;20087;-76
2022/11/25 03:22:51;;;;;;;20.67;3.83;;;;;;;7.87;100.00;100916.25;4890922;29;20342;-76
2022/11/25 03:25:17;;;;;;;20.80;4.50;;;;;;;7.86;100.00;100923.38;4873653;29;20081;-76
2022/11/25 03:27:43;;;;;;;17.92;4.93;;;;;;;7.82;100.00;100921.78;4890322;29;20091;-76
2022/11/25 03:30:16;;;;;;;24.67;4.63;;;;;;;7.76;100.00;100925.63;4888817;29;20067;-76
2022/11/25 03:32:43;;;;;;;21.25;3.58;;;;;;;7.72;100.00;100929.38;4889191;29;20067;-75
2022/11/25 03:35:10;;;;;;;28.15;4.65;;;;;;;7.72;100.00;100931.16;4888903;29;20576;-76
2022/11/25 03:37:37;;;;;;;22.95;4.90;;;;;;;7.65;100.00;100930.63;4888924;29;20041;-77
2022/11/25 03:40:04;;;;;;;24.77;4.47;;;;;;;7.66;100.00;100936.78;4888244;29;20037;-76
2022/11/25 03:42:29;;;;;;;23.13;5.30;;;;;;;7.63;100.00;100937.81;4885229;29;20056;-76
2022/11/25 03:44:55;;;;;;;24.52;4.50;;;;;;;7.58;100.00;100938.94;4889592;29;20044;-76
2022/11/25 03:47:20;;;;;;;20.55;4.72;;;;;;;7.59;100.00;100946.84;4891229;29;20044;-75
2022/11/25 03:49:47;;;;;;;24.50;4.18;;;;;;;7.52;100.00;100940.09;4889342;29;20045;-76
2022/11/25 03:52:12;;;;;;;22.73;4.60;;;;;;;7.56;100.00;100940.81;4889604;29;20036;-76
2022/11/25 03:54:37;;;;;;;25.98;4.15;;;;;;;7.55;100.00;100923.19;4888833;29;20082;-76
2022/11/25 03:57:22;;;;;;;;;;;;;;;7.54;100.00;100919.69;4889957;29;20064;-76
2022/11/25 03:59:48;;;;;;;20.88;4.70;;;;;;;7.51;100.00;100912.72;4876637;29;19958;-76
2022/11/25 04:02:14;;;;;;;34.00;5.97;;;;;;;7.53;100.00;100904.69;4889245;29;20048;-77
2022/11/25 04:04:40;;;;;;;21.20;5.18;;;;;;;7.56;100.00;100907.19;4889062;29;20504;-76
2022/11/25 04:07:07;;;;;;;16.08;3.75;;;;;;;7.59;100.00;100906.19;4893211;29;20100;-77
2022/11/25 04:09:32;;;;;;;29.63;5.13;;;;;;;7.62;100.00;100912.19;4893074;29;20083;-77
2022/11/25 04:14:51;;;;;;;18.23;4.60;;;;;;;7.59;100.00;100922.13;4894331;29;20044;-76
2022/11/25 04:17:16;;;;;;;21.25;4.75;;;;;;;7.56;100.00;100930.22;4892286;29;20044;-76
2022/11/25 04:19:43;;;;;;;30.95;5.40;;;;;;;7.54;100.00;100919.69;4892381;29;20143;-76
2022/11/25 04:22:09;;;;;;;18.80;4.32;;;;;;;7.57;100.00;100918.66;4893175;29;20045;-76
2022/11/25 04:24:38;;;;;;;24.85;4.50;;;;;;;7.59;100.00;100924.75;4875319;29;20577;-77
2022/11/25 04:27:04;;;;;;;29.02;5.55;;;;;;;7.57;100.00;100927.47;4893297;29;20037;-76
2022/11/25 04:29:29;;;;;;;22.42;5.22;;;;;;;7.54;100.00;100948.88;4894561;29;20048;-77
2022/11/25 04:31:56;;;;;;;27.23;6.00;;;;;;;7.51;100.00;100938.41;4891619;29;20442;-76
2022/11/25 04:34:21;;;;;;;28.70;5.80;;;;;;;7.52;100.00;100932.16;4889070;29;20057;-76
2022/11/25 04:36:49;;;;;;;23.65;6.38;;;;;;;7.46;100.00;100935.09;4903945;29;20041;-77
2022/11/25 04:39:14;;;;;;;18.25;4.78;;;;;;;7.49;100.00;100946.44;4908856;29;20053;-76
2022/11/25 04:41:40;;;;;;;22.80;5.10;;;;;;;7.50;100.00;100948.16;4893058;29;20040;-77
2022/11/25 04:44:05;;;;;;;21.77;5.10;;;;;;;7.43;100.00;100967.09;4885804;29;20649;-77
2022/11/25 04:46:36;;;;;;;26.33;5.63;;;;;;;7.37;100.00;100973.53;4891413;29;20561;-77
2022/11/25 04:49:02;;;;;;;22.02;6.28;;;;;;;7.40;100.00;100978.72;4888955;29;20037;-76
2022/11/25 04:51:28;;;;;;;32.22;6.45;;;;;;;7.35;100.00;100980.72;4881558;29;20041;-77
2022/11/25 04:53:58;;;;;;;31.98;6.93;;;;;;;7.35;100.00;100982.53;4889969;29;20045;-77
2022/11/25 04:56:24;;;;;;;26.95;7.13;;;;;;;7.40;100.00;100988.47;4881849;29;20190;-76
2022/11/25 05:01:42;;;;;;;24.33;7.38;;;;;;;7.31;100.00;100983.59;4879050;29;20716;-77
2022/11/25 05:04:22;;;;;;;26.55;7.45;;;;;;;7.30;100.00;100988.03;4893488;29;20052;-77
2022/11/25 05:06:50;;;;;;;31.52;8.00;;;;;;;7.29;100.00;100989.00;4886960;29;20639;-79
2022/11/25 05:09:18;;;;;;;30.33;9.05;;;;;;;7.36;100.00;100997.50;4895416;29;20084;-76
2022/11/25 05:11:49;;;;;;;32.28;8.38;;;;;;;7.39;100.00;101000.88;4880773;29;20486;-76
2022/11/25 05:14:14;;;;;;;34.95;9.25;;;;;;;7.34;100.00;101002.91;4891684;29;20047;-77
2022/11/25 05:16:40;;;;;;;25.13;8.07;;;;;;;7.43;100.00;101001.56;4873895;29;20040;-77
2022/11/25 05:19:07;;;;;;;22.63;7.72;;;;;;;7.46;100.00;101012.06;4888706;29;20040;-76
2022/11/25 05:21:32;;;;;;;30.63;9.00;;;;;;;7.46;100.00;101020.00;4889475;29;20111;-79
2022/11/25 05:23:58;;;;;;;26.73;8.00;;;;;;;7.42;100.00;101021.94;4893812;29;20815;-76
2022/11/25 05:26:26;;;;;;;28.45;8.18;;;;;;;7.47;100.00;101019.94;4891606;29;20905;-77
2022/11/25 05:28:55;;;;;;;31.52;9.30;;;;;;;7.49;100.00;101026.03;4891191;29;20041;-77
2022/11/25 05:31:21;;;;;;;28.73;7.78;;;;;;;7.45;100.00;101032.41;4891276;29;20047;-77
2022/11/25 05:33:47;;;;;;;43.50;7.88;;;;;;;7.47;100.00;101022.56;4891049;29;20056;-77
2022/11/25 05:36:14;;;;;;;31.52;8.00;;;;;;;7.54;100.00;101025.81;4890671;29;20037;-77
2022/11/25 05:38:43;;;;;;;28.55;7.82;;;;;;;7.58;100.00;101027.41;4892621;29;20036;-77
2022/11/25 05:41:12;;;;;;;22.13;7.15;;;;;;;7.57;100.00;101030.09;4891868;29;20079;-77
2022/11/25 05:43:39;;;;;;;38.10;7.95;;;;;;;7.58;100.00;101024.75;4882476;29;20558;-77
2022/11/25 05:46:06;;;;;;;30.88;7.88;;;;;;;7.63;100.00;101028.03;4894717;29;20041;-76
2022/11/25 05:48:33;;;;;;;27.05;7.20;;;;;;;7.57;100.00;101030.09;4894325;29;20040;-77
2022/11/25 05:51:00;;;;;;;31.73;7.53;;;;;;;7.61;100.00;101034.34;4894146;29;20064;-76
2022/11/25 05:53:27;;;;;;;25.13;6.70;;;;;;;7.61;100.00;101026.38;4878380;29;20119;-77
2022/11/25 05:55:56;;;;;;;28.15;8.30;;;;;;;7.61;100.00;101026.38;4872532;29;20045;-77
2022/11/25 05:58:49;;;;;;;30.02;7.72;;;;;;;7.58;100.00;101026.50;4885927;29;20079;-77
2022/11/25 06:01:15;;;;;;;25.13;6.68;;;;;;;7.53;100.00;101024.97;4880454;29;20060;-77
2022/11/25 06:03:44;;;;;;;26.58;6.80;;;;;;;7.58;100.00;101030.06;4888091;29;20033;-77
2022/11/25 06:06:10;;;;;;;24.67;6.97;;;;;;;7.60;100.00;101022.00;4886281;29;20063;-77
2022/11/25 06:08:37;;;;;;;24.77;7.35;;;;;;;7.65;100.00;101028.81;4893958;29;20060;-76
2022/11/25 06:11:10;;;;;;;21.02;6.72;;;;;;;7.56;100.00;101029.25;4891417;29;20032;-75
2022/11/25 06:13:36;;;;;;;;;;;;;;;7.60;100.00;101037.94;4870648;29;20051;-75
2022/11/25 06:16:11;;;;;;;24.00;6.07;;;;;;;7.63;100.00;101040.41;4893233;29;19923;-74
2022/11/25 06:18:37;;;;;;;23.25;6.63;;;;;;;7.61;100.00;101043.16;4891964;29;20485;-75
2022/11/25 06:21:06;;;;;;;27.83;7.05;;;;;;;7.56;100.00;101046.97;4890401;29;20131;-75
2022/11/25 06:23:32;;;;;;;24.17;5.78;;;;;;;7.52;100.00;101040.94;4891392;29;20088;-74
2022/11/25 06:26:11;;;;;;;20.77;6.05;;;;;;;7.50;100.00;101054.28;4890242;29;20481;-75
2022/11/25 06:28:37;;;;;;;17.77;5.35;;;;;;;7.57;100.00;101059.28;4896863;29;20790;-76
2022/11/25 06:31:08;;;;;;;29.20;5.68;;;;;;;7.55;100.00;101064.69;4896881;29;20037;-75
2022/11/25 06:33:39;;;;;;;24.00;6.97;;;;;;;7.47;100.00;101067.69;4889705;29;20505;-75
2022/11/25 06:36:15;;;;;;;19.00;5.53;;;;;;;7.33;100.00;101074.56;4886166;29;20045;-76
2022/11/25 06:38:45;;;;;;;17.67;4.60;;;;;;;7.26;100.00;101079.28;4883534;29;20071;-74
2022/11/25 06:41:11;;;;;;;25.23;4.95;;;;;;;7.24;100.00;101076.72;4889194;29;20101;-75
2022/11/25 06:43:37;;;;;;;20.52;4.22;;;;;;;7.20;100.00;101079.59;4887819;29;20048;-74
2022/11/25 06:46:08;;;;;;;16.88;3.97;;;;;;;7.14;100.00;101083.38;4889510;29;20048;-76
2022/11/25 06:48:34;;;;;;;27.27;7.97;;;;;;;7.20;100.00;101096.34;4890257;29;20047;-75
2022/11/25 06:51:02;;;;;;;24.33;4.45;;;;;;;7.17;100.00;101092.97;4890391;29;20037;-74
2022/11/25 06:53:28;;;;;;;15.82;3.80;;;;;;;6.97;100.00;101085.91;4888619;29;20461;-76
2022/11/25 06:56:08;;;;;;;14.10;4.25;;;;;;;6.88;100.00;101095.16;4889703;29;20044;-74
2022/11/25 06:58:35;;;;;;;20.25;4.43;;;;;;;6.87;100.00;101090.75;4890531;29;20056;-75
2022/11/25 07:01:06;;;;;;;16.27;4.03;;;;;;;6.78;100.00;101104.44;4888118;29;20040;-75
2022/11/25 07:03:32;;;;;;;17.70;4.35;;;;;;;6.69;100.00;101102.19;4889251;29;20047;-75
2022/11/25 07:05:58;;;;;;;12.75;4.00;;;;;;;6.63;100.00;101103.31;4876889;29;20128;-75
2022/11/25 07:08:25;;;;;;;15.88;4.45;;;;;;;6.60;100.00;101107.88;4890318;29;20055;-75
2022/11/25 07:10:51;;;;;;;16.67;3.83;;;;;;;6.52;100.00;101110.81;4889816;29;20048;-75
2022/11/25 07:13:17;;;;;;;19.52;4.07;;;;;;;6.53;100.00;101106.41;4887725;29;20048;-74
2022/11/25 07:15:42;;;;;;;25.98;4.45;;;;;;;6.63;100.00;101113.03;4889971;29;20051;-75
2022/11/25 07:18:08;;;;;;;13.88;3.95;;;;;;;6.68;100.00;101119.88;4889563;29;20617;-75
2022/11/25 07:20:33;;;;;;;17.98;3.90;;;;;;;6.66;100.00;101132.31;4881211;29;20108;-76
2022/11/25 07:22:58;;;;;;;15.43;4.65;;;;;;;6.64;100.00;101144.78;4884821;29;20036;-75
2022/11/25 07:25:24;;;;;;;21.15;4.07;;;;;;;6.56;100.00;101141.56;4896746;29;20820;-75
2022/11/25 07:27:49;;;;;;;13.82;4.30;;;;;;;6.63;100.00;101140.41;4896369;29;20051;-75
2022/11/25 07:30:15;;;;;;;17.08;4.07;;;;;;;6.70;100.00;101135.69;4887770;29;20041;-75
2022/11/25 07:32:41;;;;;;;20.08;3.70;;;;;;;6.73;100.00;101138.22;4889400;29;20047;-75
2022/11/25 07:35:06;;;;;;;18.40;3.95;;;;;;;6.69;100.00;101136.63;4889571;29;20048;-76
2022/11/25 07:37:32;;;;;;;18.95;5.10;;;;;;;6.71;100.00;101148.00;4883695;29;20062;-75
2022/11/25 07:39:57;;;;;;;12.85;4.30;;;;;;;6.74;100.00;101148.75;4878719;29;20049;-76
2022/11/25 07:42:23;;;;;;;13.95;4.80;;;;;;;6.73;100.00;101159.44;4892516;29;20052;-76
2022/11/25 07:44:48;;;;;;;20.05;4.53;;;;;;;6.72;100.00;101171.78;4893175;29;20061;-75
2022/11/25 07:47:34;;;;;;;12.00;4.05;;;;;;;6.75;100.00;101178.75;4880961;29;20476;-76
2022/11/25 07:49:59;;;;;;;15.18;4.60;;;;;;;6.70;100.00;101186.91;4893122;29;20048;-76
2022/11/25 07:52:25;;;;;;;13.60;4.30;;;;;;;6.71;100.00;101182.47;4893418;29;20697;-74
2022/11/25 07:54:55;;;;;;;14.30;4.07;;;;;;;6.64;100.00;101186.31;4892241;29;20077;-74
2022/11/25 07:57:20;;;;;;;20.38;4.40;;;;;;;6.67;100.00;101183.50;4893523;29;20044;-74
2022/11/25 07:59:46;;;;;;;20.02;5.35;;;;;;;6.75;100.00;101187.56;4891615;29;20037;-74
2022/11/25 08:02:11;;;;;;;19.60;7.03;;;;;;;6.75;100.00;101189.38;4890936;29;20550;-74
2022/11/25 08:04:36;;;;;;;18.63;5.97;;;;;;;6.72;100.00;101189.47;4892412;29;20036;-75
2022/11/25 08:07:02;;;;;;;14.20;5.70;;;;;;;6.80;100.00;101195.34;4890425;29;20037;-74
2022/11/25 08:09:27;;;;;;;22.00;5.97;;;;;;;6.86;100.00;101195.06;4889730;29;20527;-74
2022/11/25 08:11:53;;;;;;;19.65;5.85;;;;;;;6.92;100.00;101194.81;4896379;29;20040;-76
2022/11/25 08:14:19;;;;;;;17.73;5.22;;;;;;;6.93;100.00;101191.25;4895881;29;20497;-75
2022/11/25 08:16:48;;;;;;;15.90;5.85;;;;;;;6.93;100.00;101203.63;4897891;29;20136;-75
2022/11/25 08:19:16;;;;;;;18.10;5.57;;;;;;;6.90;100.00;101209.91;4885766;29;20115;-74
2022/11/25 08:21:42;;;;;;;17.75;6.68;;;;;;;7.05;100.00;101204.91;4882293;29;20033;-75
2022/11/25 08:24:13;;;;;;;15.18;6.38;;;;;;;7.12;100.00;101209.00;4889515;29;20040;-75
2022/11/25 08:26:39;;;;;;;20.80;6.47;;;;;;;7.14;100.00;101209.81;4892737;29;20079;-76
2022/11/25 08:29:05;;;;;;;20.45;7.65;;;;;;;7.14;100.00;101215.97;4890068;29;20055;-75
2022/11/25 08:31:36;;;;;;;17.17;6.90;;;;;;;7.06;100.00;101223.38;4890331;29;20826;-75
2022/11/25 08:34:03;;;;;;;16.13;6.90;;;;;;;7.14;100.00;101217.78;4892928;29;20100;-75
2022/11/25 08:36:30;;;;;;;16.50;7.07;;;;;;;7.19;100.00;101232.56;4889650;29;20041;-74
2022/11/25 08:38:59;;;;;;;19.30;7.43;;;;;;;7.11;100.00;101233.78;4880577;29;20144;-75
2022/11/25 08:41:29;;;;;;;19.73;7.25;;;;;;;7.21;100.00;101235.97;4888124;29;20055;-75
2022/11/25 08:43:55;;;;;;;19.88;6.60;;;;;;;7.32;100.00;101238.16;4890175;29;20036;-75
2022/11/25 08:46:24;;;;;;;26.88;7.85;;;;;;;7.35;100.00;101242.50;4890976;29;20037;-75
2022/11/25 08:48:49;;;;;;;21.63;6.03;;;;;;;7.35;100.00;101251.31;4882177;29;20045;-75
2022/11/25 08:51:18;;;;;;;16.58;5.90;;;;;;;7.39;100.00;101246.75;4890368;29;20052;-75
2022/11/25 08:53:44;;;;;;;17.75;6.07;;;;;;;7.45;100.00;101249.97;4890718;29;20282;-74
2022/11/25 08:56:10;;;;;;;18.00;6.38;;;;;;;7.47;100.00;101252.56;4891475;29;20044;-75
2022/11/25 08:58:36;;;;;;;16.77;6.28;;;;;;;7.46;100.00;101258.81;4874768;29;20048;-76
2022/11/25 09:01:03;;;;;;;34.30;7.78;;;;;;;7.48;100.00;101263.13;4891968;29;20082;-75
2022/11/25 09:03:38;;;;;;;19.58;6.80;;;;;;;7.53;100.00;101266.44;4889279;29;20104;-74
2022/11/25 09:06:06;;;;;;;15.25;6.57;;;;;;;7.63;100.00;101263.34;4896550;29;20064;-75
2022/11/25 09:08:31;;;;;;;16.67;5.55;;;;;;;7.61;100.00;101267.88;4885515;29;20079;-74
2022/11/25 09:10:58;;;;;;;17.15;6.25;;;;;;;7.67;100.00;101272.91;4884734;29;20766;-75
2022/11/25 09:13:24;;;;;;;25.13;6.88;;;;;;;7.70;100.00;101273.66;4885924;29;20056;-75
2022/11/25 09:15:49;;;;;;;19.10;6.63;;;;;;;7.83;100.00;101271.31;4884696;29;20036;-74
2022/11/25 09:18:17;;;;;;;18.67;6.43;;;;;;;7.75;100.00;101281.41;4890962;29;20463;-75
2022/11/25 09:20:43;;;;;;;19.85;6.25;;;;;;;7.78;100.00;101275.94;4891252;29;20044;-75
2022/11/25 09:23:08;;;;;;;21.13;7.53;;;;;;;7.85;100.00;101280.06;4892055;29;20051;-75
2022/11/25 09:25:34;;;;;;;15.90;7.07;;;;;;;7.84;100.00;101286.31;4891042;29;20044;-76
2022/11/25 09:28:00;;;;;;;20.00;7.07;;;;;;;7.96;100.00;101284.88;4891593;29;20043;-75
2022/11/25 09:30:25;;;;;;;20.35;5.80;;;;;;;7.96;100.00;101290.19;4874435;29;20048;-76
2022/11/25 09:32:53;;;;;;;16.27;5.53;;;;;;;8.12;100.00;101293.00;4889815;29;20721;-76
2022/11/25 09:35:19;;;;;;;16.40;6.78;;;;;;;8.09;100.00;101296.69;4878827;29;20045;-76
2022/11/25 09:37:45;;;;;;;13.63;5.15;;;;;;;8.26;100.00;101307.38;4889827;29;20794;-77
2022/11/25 09:40:42;;;;;;;13.70;5.03;;;;;;;8.27;100.00;101310.91;4890007;29;20056;-76
2022/11/25 09:46:44;;;;;;;16.40;4.45;;;;;;;8.36;100.00;101318.47;4843135;29;20087;-76
2022/11/25 09:50:01;;;;;;;16.92;5.07;;;;;;;8.51;100.00;101322.22;4850340;29;20079;-75
2022/11/25 09:52:34;;;;;;;12.10;4.57;;;;;;;8.55;100.00;101318.50;4850151;29;20037;-76
2022/11/25 09:55:14;;;;;;;19.60;5.03;;;;;;;8.50;100.00;101329.34;4850278;29;20064;-76
2022/11/25 09:58:05;;;;;;;15.82;5.10;;;;;;;8.60;100.00;101334.22;4850075;29;20221;-75
2022/11/25 10:00:40;;;;;;;14.00;4.50;;;;;;;8.70;100.00;101335.50;4834990;29;20057;-74
2022/11/25 10:03:34;;;;;;;14.63;4.75;;;;;;;8.59;100.00;101343.13;4850368;29;20169;-76
2022/11/25 10:06:14;;;;;;;13.18;4.45;;;;;;;8.74;100.00;101345.94;4850811;29;20080;-75
2022/11/25 10:08:56;;;;;;;13.30;4.38;;;;;;;8.86;100.00;101348.94;4852116;29;20510;-76
2022/11/25 10:11:30;;;;;;;18.70;4.55;;;;;;;8.90;100.00;101353.16;4852927;29;20201;-76
2022/11/25 10:14:06;;;;;;;16.77;4.65;;;;;;;8.93;100.00;101356.53;4852867;29;20057;-75
2022/11/25 10:16:40;;;;;;;13.85;4.47;;;;;;;9.01;100.00;101354.38;4849815;29;20037;-75
2022/11/25 10:19:26;;;;;;;21.00;6.05;;;;;;;8.93;100.00;101353.00;4852078;29;20061;-74
2022/11/25 10:21:51;;;;;;;11.73;4.22;;;;;;;9.04;100.00;101361.34;4891040;29;20534;-74
2022/11/25 10:24:17;;;;;;;10.35;4.47;;;;;;;9.09;100.00;101359.31;4890206;29;20056;-74
2022/11/25 10:26:47;;;;;;;13.13;4.70;;;;;;;9.08;100.00;101362.91;4890973;29;20474;-73
2022/11/25 10:29:12;;;;;;;18.75;4.93;;;;;;;9.04;100.00;101361.34;4890148;29;20585;-74
2022/11/25 10:31:40;;;;;;;12.25;5.10;;;;;;;9.07;100.00;101361.19;4895328;29;20120;-75
2022/11/25 10:34:34;;;;;;;9.98;4.63;;;;;;;9.04;100.00;101372.00;4890218;29;20041;-74
2022/11/25 10:37:04;;;;;;;18.50;5.63;;;;;;;9.16;100.00;101368.72;4887988;29;20147;-73
2022/11/25 10:39:33;;;;;;;22.17;5.57;;;;;;;9.25;100.00;101373.59;4890167;29;20642;-74
2022/11/25 10:42:07;;;;;;;21.17;5.57;;;;;;;9.23;100.00;101372.78;4894471;29;20495;-74
2022/11/25 10:44:35;;;;;;;15.88;5.18;;;;;;;9.16;100.00;101381.16;4885465;29;20043;-73
2022/11/25 10:47:19;;;;;;;14.15;5.68;;;;;;;9.22;100.00;101378.19;4891431;29;20040;-75
2022/11/25 10:50:11;;;;;;;15.60;4.25;;;;;;;9.31;100.00;101377.75;4892119;29;20049;-77
2022/11/25 10:52:43;;;;;;;10.40;4.47;;;;;;;9.37;100.00;101387.22;4881689;29;20111;-76
2022/11/25 10:55:14;;;;;;;13.43;3.88;;;;;;;9.38;100.00;101386.28;4889366;29;20048;-76
2022/11/25 10:57:40;;;;;;;14.60;3.78;;;;;;;9.41;100.00;101391.47;4891156;29;20067;-75
2022/11/25 11:00:20;;;;;;;12.70;4.32;;;;;;;9.46;100.00;101392.94;4887030;29;20036;-76
2022/11/25 11:02:47;;;;;;;14.35;4.22;;;;;;;9.65;100.00;101390.25;4886493;29;20105;-76
2022/11/25 11:05:12;;;;;;;12.45;3.95;;;;;;;9.66;100.00;101391.94;4879519;29;20394;-79
2022/11/25 11:07:43;;;;;;;13.35;3.80;;;;;;;9.64;100.00;101392.94;4862369;29;20200;-75
2022/11/25 11:10:16;;;;;;;17.40;3.95;;;;;;;9.69;100.00;101398.91;4893152;29;20128;-75
2022/11/25 11:13:10;;;;;;;14.77;5.22;;;;;;;9.84;100.00;101403.47;4860508;29;20048;-76
2022/11/25 11:15:41;;;;;;;13.02;4.50;;;;;;;9.81;100.00;101404.47;4877982;29;20383;-76
2022/11/25 11:18:36;;;;;;;12.77;3.42;;;;;;;9.74;100.00;101412.84;4883874;29;20063;-77
2022/11/25 11:21:03;;;;;;;8.38;3.10;;;;;;;9.77;100.00;101416.22;4881857;29;20060;-76
2022/11/25 11:23:29;;;;;;;12.75;3.72;;;;;;;9.80;100.00;101417.91;4890007;29;20058;-75
2022/11/25 11:25:56;;;;;;;14.25;3.50;;;;;;;9.92;100.00;101429.72;4886514;29;20037;-76
2022/11/25 11:28:33;;;;;;;17.52;3.85;;;;;;;9.98;100.00;101432.06;4887824;29;20044;-76
2022/11/25 11:31:08;;;;;;;14.95;3.80;;;;;;;10.02;100.00;101436.28;4882326;29;20037;-75
2022/11/25 11:33:47;;;;;;;11.07;3.15;;;;;;;10.01;100.00;101439.91;4887718;29;20036;-75
2022/11/25 11:36:33;;;;;;;25.02;4.63;;;;;;;10.08;100.00;101435.97;4887736;29;20045;-75
2022/11/25 11:39:19;;;;;;;10.20;3.10;;;;;;;10.05;100.00;101433.47;4886001;29;20048;-75
2022/11/25 11:41:49;;;;;;;11.07;2.97;;;;;;;10.13;100.00;101444.59;4887856;29;20617;-75